Time;durP1;ratioP1;P1;durP2;ratioP2;P2;SDS_P1;SDS_P2;PMS_P1;PMS_P2;Temp;Humidity;BMP_temperature;BMP_pressure;BME280_temperature;BME280_humidity;BME280_pressure;Samples;Min_cycle;Max_cycle;Signal;HPM_P1;HPM_P2
2022/11/10 00:01:36;;;;;;;15.80;3.03;;;;;;;8.92;99.54;101678.38;5034363;28;20128;-73
2022/11/10 00:04:20;;;;;;;13.00;3.33;;;;;;;8.90;99.49;101669.59;5034737;28;20140;-74
2022/11/10 00:07:04;;;;;;;16.58;3.30;;;;;;;8.89;100.00;101680.16;5032352;28;20419;-73
2022/11/10 00:09:48;;;;;;;13.93;3.42;;;;;;;8.89;99.72;101683.69;5034034;28;20107;-74
2022/11/10 00:12:33;;;;;;;11.73;2.95;;;;;;;8.87;99.92;101674.00;5033008;28;20551;-74
2022/11/10 00:18:19;;;;;;;21.27;4.30;;;;;;;8.82;100.00;101677.50;5034408;28;20409;-74
2022/11/10 00:21:06;;;;;;;15.38;3.30;;;;;;;8.80;100.00;101668.75;5032642;28;20512;-74
2022/11/10 00:23:50;;;;;;;20.13;3.92;;;;;;;8.81;100.00;101677.53;5038542;28;20087;-74
2022/11/10 00:26:34;;;;;;;13.80;3.10;;;;;;;8.76;100.00;101669.63;5033033;28;20129;-74
2022/11/10 00:29:18;;;;;;;11.60;2.95;;;;;;;8.78;100.00;101681.06;5032570;28;20469;-74
2022/11/10 00:32:02;;;;;;;10.30;2.47;;;;;;;8.77;100.00;101687.19;5034126;28;20064;-74
2022/11/10 00:34:46;;;;;;;18.00;3.75;;;;;;;8.78;100.00;101693.38;5034237;28;20052;-73
2022/11/10 00:37:31;;;;;;;19.48;4.10;;;;;;;8.77;100.00;101705.69;5034015;28;20099;-74
2022/11/10 00:40:15;;;;;;;13.13;3.00;;;;;;;8.75;100.00;101703.94;5031371;28;20045;-73
2022/11/10 00:42:58;;;;;;;14.98;3.30;;;;;;;8.74;100.00;101703.06;5032640;28;20188;-74
2022/11/10 00:45:45;;;;;;;11.45;2.70;;;;;;;8.68;100.00;101705.72;5021582;28;20467;-74
2022/11/10 00:48:29;;;;;;;19.38;3.22;;;;;;;8.68;100.00;101711.00;5033851;28;20460;-73
2022/11/10 00:51:31;;;;;;;21.15;3.35;;;;;;;8.70;100.00;101705.69;5033672;28;20047;-73
2022/11/10 00:54:15;;;;;;;18.35;3.20;;;;;;;8.69;100.00;101712.75;5033834;28;20099;-73
2022/11/10 00:56:59;;;;;;;16.67;3.30;;;;;;;8.70;100.00;101709.22;5033531;28;20098;-73
2022/11/10 00:59:43;;;;;;;23.73;3.30;;;;;;;8.69;100.00;101710.09;5032440;28;20053;-73
2022/11/10 01:02:27;;;;;;;17.15;3.47;;;;;;;8.68;100.00;101715.38;5031015;28;20060;-73
2022/11/10 01:05:12;;;;;;;14.60;3.72;;;;;;;8.64;100.00;101717.16;5032619;28;20076;-73
2022/11/10 01:07:58;;;;;;;13.07;3.35;;;;;;;8.63;100.00;101717.13;5032323;28;20068;-73
2022/11/10 01:10:42;;;;;;;19.48;3.60;;;;;;;8.63;100.00;101717.13;5033719;28;20461;-73
2022/11/10 01:13:26;;;;;;;17.23;3.80;;;;;;;8.61;100.00;101712.75;5033143;28;20080;-73
2022/11/10 01:16:13;;;;;;;16.15;3.33;;;;;;;8.61;100.00;101725.06;5017224;28;20435;-73
2022/11/10 01:19:00;;;;;;;15.80;3.35;;;;;;;8.58;100.00;101723.31;5030704;28;20453;-73
2022/11/10 01:21:44;;;;;;;23.67;3.83;;;;;;;8.57;100.00;101737.38;5032930;28;20143;-73
2022/11/10 01:24:28;;;;;;;19.23;3.47;;;;;;;8.57;100.00;101745.31;5016031;28;20113;-73
2022/11/10 01:27:12;;;;;;;13.98;3.00;;;;;;;8.58;100.00;101762.00;5033068;28;20106;-73
2022/11/10 01:29:56;;;;;;;17.15;3.15;;;;;;;8.54;100.00;101750.59;5019278;28;20052;-73
2022/11/10 01:32:40;;;;;;;18.73;3.85;;;;;;;8.54;100.00;101753.22;5017910;28;20088;-73
2022/11/10 01:35:24;;;;;;;14.80;3.15;;;;;;;8.52;100.00;101756.75;5032977;28;20044;-73
2022/11/10 01:38:08;;;;;;;22.13;3.70;;;;;;;8.49;100.00;101760.25;5031791;28;20052;-73
2022/11/10 01:40:52;;;;;;;15.23;3.20;;;;;;;8.48;100.00;101753.22;5030614;28;20080;-73
2022/11/10 01:43:36;;;;;;;18.17;3.47;;;;;;;8.48;100.00;101760.25;5031733;28;20511;-73
2022/11/10 01:46:20;;;;;;;16.17;3.53;;;;;;;8.46;100.00;101754.97;5032972;28;20060;-73
2022/11/10 01:49:04;;;;;;;11.90;3.15;;;;;;;8.46;100.00;101754.09;5032791;28;20045;-73
2022/11/10 01:51:53;;;;;;;16.27;2.78;;;;;;;8.45;100.00;101752.31;5031352;28;20559;-73
2022/11/10 01:54:43;;;;;;;17.05;3.65;;;;;;;8.43;100.00;101759.34;5032807;28;20527;-73
2022/11/10 01:57:27;;;;;;;13.40;3.40;;;;;;;8.43;100.00;101752.31;5032687;28;20094;-73
2022/11/10 02:00:12;;;;;;;19.15;3.25;;;;;;;8.40;100.00;101745.28;4997774;28;20049;-73
2022/11/10 02:03:04;;;;;;;14.82;2.88;;;;;;;8.41;100.00;101751.47;5021089;28;20048;-74
2022/11/10 02:05:49;;;;;;;16.75;3.40;;;;;;;8.39;100.00;101759.34;5031421;28;20060;-73
2022/11/10 02:08:34;;;;;;;17.08;3.33;;;;;;;8.41;100.00;101756.75;5032654;28;20087;-73
2022/11/10 02:11:18;;;;;;;19.38;3.72;;;;;;;8.39;100.00;101763.72;5019089;28;20079;-73
2022/11/10 02:14:03;;;;;;;14.43;3.03;;;;;;;8.37;100.00;101760.19;5030522;28;20068;-73
2022/11/10 02:16:48;;;;;;;23.17;4.40;;;;;;;8.36;100.00;101761.09;5032055;28;20137;-73
2022/11/10 02:19:39;;;;;;;20.35;4.13;;;;;;;8.34;100.00;101766.34;5030599;28;20508;-74
2022/11/10 02:22:23;;;;;;;;;;;;;;;8.35;100.00;101772.50;5032486;28;20091;-73
2022/11/10 02:25:07;;;;;;;17.20;3.47;;;;;;;8.34;100.00;101778.69;5027347;28;20533;-73
2022/11/10 02:27:52;;;;;;;21.42;3.75;;;;;;;8.31;100.00;101782.19;5031949;28;20044;-73
2022/11/10 02:30:36;;;;;;;17.33;4.20;;;;;;;8.30;100.00;101785.69;5016208;28;20047;-73
2022/11/10 02:33:20;;;;;;;25.27;3.60;;;;;;;8.31;100.00;101797.16;5018498;28;20048;-73
2022/11/10 02:36:04;;;;;;;21.73;3.97;;;;;;;8.31;100.00;101802.44;5030423;28;20113;-73
2022/11/10 02:38:48;;;;;;;19.00;3.58;;;;;;;8.30;100.00;101811.22;5030298;28;20099;-73
2022/11/10 02:41:32;;;;;;;15.02;3.08;;;;;;;8.29;100.00;101812.97;5029884;28;20068;-73
2022/11/10 02:44:16;;;;;;;16.83;4.18;;;;;;;8.30;100.00;101808.56;5030617;28;20373;-73
2022/11/10 02:47:00;;;;;;;15.80;3.25;;;;;;;8.31;100.00;101807.72;5035462;28;20562;-73
2022/11/10 02:49:44;;;;;;;17.50;2.88;;;;;;;8.31;100.00;101810.34;5046999;28;20067;-73
2022/11/10 02:52:28;;;;;;;16.00;3.63;;;;;;;8.31;100.00;101820.91;5049178;28;20060;-73
2022/11/10 02:55:12;;;;;;;16.50;3.10;;;;;;;8.27;100.00;101813.84;5032957;28;20416;-73
2022/11/10 02:57:56;;;;;;;19.95;3.33;;;;;;;8.27;100.00;101812.06;5047932;28;20519;-73
2022/11/10 03:00:39;;;;;;;21.15;3.55;;;;;;;8.26;100.00;101815.59;5046231;28;20163;-73
2022/11/10 03:03:23;;;;;;;18.67;3.30;;;;;;;8.23;100.00;101815.56;5044072;28;20060;-73
2022/11/10 03:06:07;;;;;;;18.13;3.03;;;;;;;8.24;100.00;101824.41;5031748;28;20107;-73
2022/11/10 03:08:52;;;;;;;17.10;4.03;;;;;;;8.24;100.00;101819.13;5044826;28;20126;-73
2022/11/10 03:11:36;;;;;;;22.88;3.22;;;;;;;8.21;100.00;101814.72;5048879;28;20151;-73
2022/11/10 03:14:20;;;;;;;16.55;2.90;;;;;;;8.21;100.00;101829.63;5044265;28;20119;-73
2022/11/10 03:17:04;;;;;;;15.75;2.95;;;;;;;8.19;100.00;101832.28;5045310;28;20119;-73
2022/11/10 03:19:49;;;;;;;20.38;3.40;;;;;;;8.15;100.00;101828.75;5044462;28;20527;-73
2022/11/10 03:22:34;;;;;;;11.50;2.55;;;;;;;8.16;100.00;101833.16;5044275;28;20091;-73
2022/11/10 03:25:18;;;;;;;19.08;3.30;;;;;;;8.17;100.00;101840.19;5047536;28;20067;-74
2022/11/10 03:28:02;;;;;;;18.38;2.70;;;;;;;8.15;100.00;101847.22;5048294;28;20106;-73
2022/11/10 03:30:46;;;;;;;16.80;3.15;;;;;;;8.15;100.00;101841.06;5047571;28;20154;-73
2022/11/10 03:33:29;;;;;;;23.95;3.70;;;;;;;8.17;100.00;101856.03;5027067;28;20060;-73
2022/11/10 03:36:14;;;;;;;19.98;3.75;;;;;;;8.13;100.00;101853.34;5046546;28;20108;-78
2022/11/10 03:38:58;;;;;;;14.45;3.17;;;;;;;8.11;100.00;101858.66;5033338;28;20119;-78
2022/11/10 03:41:42;;;;;;;17.25;3.78;;;;;;;8.08;100.00;101861.25;5035805;28;20036;-78
2022/11/10 03:44:26;;;;;;;17.48;3.10;;;;;;;8.08;100.00;101876.19;5034056;28;20516;-79
2022/11/10 03:47:10;;;;;;;20.23;3.63;;;;;;;8.07;100.00;101870.06;5038681;28;20052;-78
2022/11/10 03:49:53;;;;;;;19.05;3.03;;;;;;;8.07;100.00;101885.00;5041765;28;20114;-78
2022/11/10 03:52:39;;;;;;;16.45;3.50;;;;;;;8.06;100.00;101884.13;5026194;28;20127;-78
2022/11/10 03:55:23;;;;;;;22.48;4.15;;;;;;;8.04;100.00;101885.88;5045536;28;20342;-78
2022/11/10 03:58:07;;;;;;;14.57;3.00;;;;;;;8.03;100.00;101883.22;5035102;28;20606;-78
2022/11/10 04:00:53;;;;;;;13.70;2.75;;;;;;;8.01;100.00;101880.59;5028043;28;20100;-78
2022/11/10 04:03:37;;;;;;;18.35;3.88;;;;;;;8.02;100.00;101877.06;5036005;28;20047;-78
2022/11/10 04:09:24;;;;;;;12.93;2.63;;;;;;;8.03;100.00;101880.56;5032249;28;20043;-78
2022/11/10 04:18:23;;;;;;;16.02;3.17;;;;;;;8.02;100.00;101911.34;5034370;28;20099;-79
2022/11/10 04:21:07;;;;;;;18.10;3.17;;;;;;;7.98;100.00;101902.53;5024972;28;20100;-78
2022/11/10 04:23:51;;;;;;;17.20;2.88;;;;;;;7.97;100.00;101919.22;5032018;28;20087;-78
2022/11/10 04:26:39;;;;;;;18.70;3.17;;;;;;;7.99;100.00;101916.63;5035022;28;20512;-73
2022/11/10 04:29:23;;;;;;;18.52;3.35;;;;;;;8.00;100.00;101928.91;5048544;28;20088;-74
2022/11/10 04:32:07;;;;;;;22.10;3.40;;;;;;;7.99;100.00;101935.09;5048462;28;20083;-73
2022/11/10 04:34:51;;;;;;;18.35;3.25;;;;;;;7.98;100.00;101941.22;5028622;28;20447;-73
2022/11/10 04:37:35;;;;;;;18.20;3.97;;;;;;;8.00;100.00;101952.66;5046710;28;20055;-73
2022/11/10 04:40:19;;;;;;;10.00;2.72;;;;;;;7.96;100.00;101954.41;5041617;28;20060;-73
2022/11/10 04:43:03;;;;;;;15.25;2.90;;;;;;;7.96;100.00;101962.31;5049496;28;20098;-73
2022/11/10 04:45:48;;;;;;;20.45;3.20;;;;;;;7.94;100.00;101966.69;5046935;28;20118;-73
2022/11/10 04:48:35;;;;;;;11.73;2.88;;;;;;;7.93;100.00;101972.81;5050921;28;20472;-73
2022/11/10 04:51:21;;;;;;;19.33;3.85;;;;;;;7.94;100.00;101976.38;5046478;28;20101;-73
2022/11/10 04:54:06;;;;;;;13.02;2.83;;;;;;;7.91;100.00;101971.97;5045642;28;20044;-73
2022/11/10 04:56:51;;;;;;;18.95;3.83;;;;;;;7.91;100.00;101976.31;5045115;28;20048;-73
2022/11/10 04:59:34;;;;;;;12.80;2.85;;;;;;;7.88;100.00;101985.09;5049359;28;20123;-73
2022/11/10 05:02:18;;;;;;;22.05;3.63;;;;;;;7.86;100.00;101978.97;5052453;28;20110;-73
2022/11/10 05:05:03;;;;;;;19.88;3.00;;;;;;;7.86;100.00;101981.59;5048548;28;20063;-73
2022/11/10 05:07:50;;;;;;;18.00;3.22;;;;;;;7.89;100.00;101983.38;5047154;28;20149;-73
2022/11/10 05:10:35;;;;;;;13.82;3.00;;;;;;;7.84;100.00;101980.69;5031638;28;20194;-73
2022/11/10 05:13:19;;;;;;;21.20;3.60;;;;;;;7.85;100.00;101990.38;5051119;28;20476;-73
2022/11/10 05:16:04;;;;;;;22.10;3.40;;;;;;;7.88;100.00;101993.00;5050876;28;20056;-73
2022/11/10 05:18:54;;;;;;;14.90;2.70;;;;;;;7.86;100.00;101989.50;5045882;28;20099;-73
2022/11/10 05:21:38;;;;;;;16.25;3.13;;;;;;;7.83;100.00;101986.81;5035388;28;20504;-73
2022/11/10 05:24:22;;;;;;;13.98;3.72;;;;;;;7.80;100.00;101981.53;5027509;28;20064;-73
2022/11/10 05:27:09;;;;;;;15.60;2.92;;;;;;;7.81;100.00;101985.91;5027192;28;20103;-73
2022/11/10 05:29:54;;;;;;;20.15;3.55;;;;;;;7.80;100.00;101993.84;5032422;28;20132;-73
2022/11/10 05:32:38;;;;;;;14.30;3.10;;;;;;;7.78;100.00;101999.09;5031791;28;20132;-73
2022/11/10 05:35:23;;;;;;;26.60;3.97;;;;;;;7.81;100.00;101995.59;5029339;28;20044;-73
2022/11/10 05:38:07;;;;;;;26.65;3.65;;;;;;;7.79;100.00;102005.25;5032348;28;20147;-73
2022/11/10 05:40:51;;;;;;;18.90;2.53;;;;;;;7.76;100.00;102003.47;5030381;28;20121;-73
2022/11/10 05:43:35;;;;;;;24.67;3.65;;;;;;;7.75;100.00;102004.34;5032423;28;20048;-73
2022/11/10 05:46:19;;;;;;;18.35;3.17;;;;;;;7.72;100.00;102005.22;5032266;28;20111;-73
2022/11/10 05:49:03;;;;;;;19.25;2.95;;;;;;;7.75;100.00;102013.13;5031695;28;20139;-73
2022/11/10 05:51:47;;;;;;;18.00;3.20;;;;;;;7.76;100.00;102019.28;5031974;28;20531;-73
2022/11/10 05:54:31;;;;;;;16.00;3.17;;;;;;;7.73;100.00;102020.13;5032559;28;20064;-73
2022/11/10 05:57:15;;;;;;;21.30;3.22;;;;;;;7.75;100.00;102017.53;5030887;28;20143;-73
2022/11/10 05:59:59;;;;;;;22.67;3.80;;;;;;;7.74;100.00;102026.31;5032001;28;20048;-73
2022/11/10 06:02:44;;;;;;;15.88;3.72;;;;;;;7.73;100.00;102028.06;5044628;28;20103;-73
2022/11/10 06:05:30;;;;;;;18.15;2.92;;;;;;;7.71;100.00;102037.69;5050802;28;20421;-73
2022/11/10 06:08:16;;;;;;;24.45;3.70;;;;;;;7.71;100.00;102036.81;5039818;28;20048;-73
2022/11/10 06:11:00;;;;;;;17.90;3.17;;;;;;;7.71;100.00;102039.47;5043694;28;20093;-73
2022/11/10 06:13:44;;;;;;;22.15;3.97;;;;;;;7.71;100.00;102042.09;5050405;28;20551;-73
2022/11/10 06:16:28;;;;;;;23.92;3.45;;;;;;;7.72;100.00;102050.03;5046732;28;20102;-73
2022/11/10 06:19:12;;;;;;;19.27;3.40;;;;;;;7.71;100.00;102044.72;5044453;28;20072;-73
2022/11/10 06:21:56;;;;;;;21.92;3.47;;;;;;;7.71;100.00;102050.00;5047234;28;20067;-73
2022/11/10 06:24:40;;;;;;;14.52;3.38;;;;;;;7.67;100.00;102046.47;5048445;28;20062;-73
2022/11/10 06:27:24;;;;;;;20.02;3.42;;;;;;;7.66;100.00;102054.34;5043570;28;20048;-73
2022/11/10 06:30:09;;;;;;;17.63;3.50;;;;;;;7.65;100.00;102053.47;5045893;28;20115;-73
2022/11/10 06:32:53;;;;;;;21.15;3.50;;;;;;;7.64;100.00;102072.81;5043154;28;20111;-73
2022/11/10 06:35:37;;;;;;;16.00;3.10;;;;;;;7.62;100.00;102069.28;5041772;28;20161;-73
2022/11/10 06:38:21;;;;;;;21.35;3.83;;;;;;;7.61;100.00;102078.03;5039977;28;20135;-73
2022/11/10 06:41:05;;;;;;;21.73;4.00;;;;;;;7.60;100.00;102078.03;5040697;28;20075;-73
2022/11/10 06:43:49;;;;;;;22.35;4.40;;;;;;;7.57;100.00;102084.16;5046975;28;20122;-73
2022/11/10 06:46:32;;;;;;;15.18;3.30;;;;;;;7.54;100.00;102092.91;5045405;28;20051;-73
2022/11/10 06:49:16;;;;;;;16.35;3.47;;;;;;;7.53;100.00;102098.16;5046335;28;20128;-73
2022/11/10 06:52:00;;;;;;;21.60;3.28;;;;;;;7.55;100.00;102109.63;5047804;28;20052;-74
2022/11/10 06:54:44;;;;;;;14.52;3.55;;;;;;;7.54;100.00;102111.38;5048205;28;20052;-73
2022/11/10 06:57:28;;;;;;;19.30;4.20;;;;;;;7.54;100.00;102118.38;5038580;28;20263;-73
2022/11/10 07:00:14;;;;;;;21.20;4.20;;;;;;;7.53;100.00;102114.84;5028110;28;21633;-73
2022/11/10 07:03:02;;;;;;;19.10;3.78;;;;;;;7.51;100.00;102119.22;5048264;28;20055;-73
2022/11/10 07:05:46;;;;;;;17.33;4.05;;;;;;;7.51;100.00;102111.31;5045118;28;20136;-73
2022/11/10 07:08:30;;;;;;;18.35;3.20;;;;;;;7.52;100.00;102123.66;5043794;28;20408;-73
2022/11/10 07:11:14;;;;;;;20.42;3.90;;;;;;;7.53;100.00;102129.78;5035518;28;20040;-73
2022/11/10 07:13:59;;;;;;;21.27;3.78;;;;;;;7.54;100.00;102128.91;5022211;28;20095;-73
2022/11/10 07:16:43;;;;;;;15.60;3.20;;;;;;;7.57;100.00;102142.16;5027875;28;20092;-74
2022/11/10 07:19:26;;;;;;;14.75;3.70;;;;;;;7.58;100.00;102143.91;5027491;28;20089;-73
2022/11/10 07:22:10;;;;;;;20.73;3.70;;;;;;;7.64;100.00;102151.00;5021479;28;20473;-74
2022/11/10 07:24:54;;;;;;;18.35;4.13;;;;;;;7.59;100.00;102148.34;5028107;28;20121;-73
2022/11/10 07:27:38;;;;;;;18.02;3.25;;;;;;;7.61;100.00;102159.75;5014100;28;20048;-74
2022/11/10 07:30:23;;;;;;;16.48;3.55;;;;;;;7.63;100.00;102167.69;5033544;28;20651;-74
2022/11/10 07:33:11;;;;;;;13.82;3.42;;;;;;;7.63;100.00;102179.13;5030335;28;20048;-74
2022/11/10 07:35:57;;;;;;;19.42;4.00;;;;;;;7.65;100.00;102177.38;5031493;28;20095;-74
2022/11/10 07:38:41;;;;;;;19.42;3.58;;;;;;;7.67;100.00;102180.06;5029547;28;20099;-74
2022/11/10 07:41:25;;;;;;;22.48;4.07;;;;;;;7.70;100.00;102174.81;5029967;28;20079;-73
2022/11/10 07:44:09;;;;;;;14.77;3.55;;;;;;;7.72;100.00;102171.31;5029938;28;20049;-73
2022/11/10 07:46:52;;;;;;;19.50;3.67;;;;;;;7.75;100.00;102171.34;5029972;28;20052;-74
2022/11/10 07:49:36;;;;;;;20.75;3.42;;;;;;;7.78;100.00;102178.41;5031179;28;20044;-73
2022/11/10 07:52:20;;;;;;;17.27;3.60;;;;;;;7.81;100.00;102173.16;5030003;28;20100;-74
2022/11/10 07:55:05;;;;;;;23.70;4.32;;;;;;;7.85;100.00;102172.34;5031473;28;20397;-74
2022/11/10 07:57:49;;;;;;;23.30;3.72;;;;;;;7.89;100.00;102175.91;5028685;28;20060;-74
2022/11/10 08:00:35;;;;;;;21.40;3.60;;;;;;;7.95;100.00;102195.28;5031391;28;20110;-74
2022/11/10 08:03:20;;;;;;;19.42;3.60;;;;;;;8.00;100.00;102187.44;5031367;28;20533;-74
2022/11/10 08:06:04;;;;;;;19.20;4.13;;;;;;;8.07;100.00;102198.94;5034637;28;20060;-74
2022/11/10 08:08:49;;;;;;;17.45;3.78;;;;;;;8.13;100.00;102199.88;5036509;28;20079;-74
2022/11/10 08:11:33;;;;;;;26.95;4.70;;;;;;;8.19;100.00;102212.25;5031810;28;20052;-74
2022/11/10 08:14:17;;;;;;;19.80;3.15;;;;;;;8.26;100.00;102222.03;5032119;28;20052;-74
2022/11/10 08:17:01;;;;;;;13.88;3.55;;;;;;;8.34;100.00;102232.66;5035336;28;20060;-73
2022/11/10 08:19:45;;;;;;;25.80;3.78;;;;;;;8.42;100.00;102222.19;5030813;28;20103;-73
2022/11/10 08:22:29;;;;;;;83.00;9.20;;;;;;;8.49;100.00;102231.94;5030202;28;20061;-76
2022/11/10 08:25:13;;;;;;;33.28;4.35;;;;;;;8.54;100.00;102224.94;5031539;28;20055;-73
2022/11/10 08:28:01;;;;;;;30.67;4.38;;;;;;;8.64;100.00;102233.81;5033179;28;20102;-74
2022/11/10 08:30:47;;;;;;;21.92;3.95;;;;;;;8.68;100.00;102236.50;5025737;28;20099;-73
2022/11/10 08:33:31;;;;;;;18.80;3.88;;;;;;;8.74;100.00;102231.25;5028319;28;20044;-73
2022/11/10 08:36:15;;;;;;;19.45;3.45;;;;;;;8.81;100.00;102227.81;5029470;28;20060;-73
2022/11/10 08:38:59;;;;;;;25.25;4.78;;;;;;;8.86;100.00;102227.84;5029242;28;20064;-74
2022/11/10 08:41:43;;;;;;;19.10;4.55;;;;;;;8.97;100.00;102230.53;5026051;28;20060;-73
2022/11/10 08:44:27;;;;;;;17.98;4.22;;;;;;;9.01;100.00;102248.19;5028109;28;20705;-74
2022/11/10 08:47:11;;;;;;;15.77;3.53;;;;;;;9.07;100.00;102237.66;5022769;28;20401;-73
2022/11/10 08:49:55;;;;;;;25.70;4.25;;;;;;;9.12;100.00;102245.63;5027312;28;20053;-73
2022/11/10 08:52:39;;;;;;;18.45;3.35;;;;;;;9.20;100.00;102252.75;5031179;28;20064;-74
2022/11/10 08:55:23;;;;;;;15.98;3.67;;;;;;;9.25;100.00;102253.66;5033745;28;20052;-74
2022/11/10 08:58:11;;;;;;;13.95;3.67;;;;;;;9.34;100.00;102246.66;5026430;28;20068;-74
2022/11/10 09:00:55;;;;;;;21.92;4.10;;;;;;;9.42;100.00;102255.50;5027597;28;20048;-74
2022/11/10 09:03:39;;;;;;;16.90;3.90;;;;;;;9.47;100.00;102254.66;5035881;28;20068;-74
2022/11/10 09:06:23;;;;;;;19.60;4.32;;;;;;;9.53;100.00;102263.50;5028858;28;20469;-74
2022/11/10 09:09:07;;;;;;;24.10;4.20;;;;;;;9.59;100.00;102264.41;5032338;28;20095;-74
2022/11/10 09:11:51;;;;;;;17.75;4.13;;;;;;;9.65;100.00;102275.03;5026620;28;20481;-74
2022/11/10 09:14:35;;;;;;;17.63;3.30;;;;;;;9.71;99.69;102263.56;5026781;28;20060;-74
2022/11/10 09:17:19;;;;;;;18.58;3.78;;;;;;;9.79;100.00;102282.13;5030479;28;20109;-74
2022/11/10 09:20:05;;;;;;;19.02;3.72;;;;;;;9.85;99.11;102282.16;5030213;28;20139;-74
2022/11/10 09:22:49;;;;;;;20.15;3.80;;;;;;;9.90;99.03;102273.38;5031923;28;20129;-75
2022/11/10 09:25:33;;;;;;;18.65;4.05;;;;;;;9.96;98.63;102276.91;5033202;28;20184;-74
2022/11/10 09:28:18;;;;;;;19.25;3.80;;;;;;;10.03;98.57;102271.63;5033646;28;20056;-74
2022/11/10 09:31:02;;;;;;;15.32;3.78;;;;;;;10.10;97.83;102272.56;5032396;28;20152;-75
2022/11/10 09:33:46;;;;;;;17.00;3.80;;;;;;;10.18;97.21;102276.09;5018693;28;20381;-74
2022/11/10 09:36:30;;;;;;;27.95;4.55;;;;;;;10.21;96.95;102278.78;5034899;28;20102;-74
2022/11/10 09:39:14;;;;;;;19.92;3.88;;;;;;;10.29;97.29;102284.13;5016663;28;20056;-74
2022/11/10 09:41:58;;;;;;;19.08;3.58;;;;;;;10.36;96.25;102280.59;5035962;28;20187;-74
2022/11/10 09:44:52;;;;;;;16.00;3.70;;;;;;;10.42;96.04;102279.72;5033829;28;20052;-75
2022/11/10 09:47:47;;;;;;;17.30;4.20;;;;;;;10.51;95.37;102285.03;5025366;28;20415;-74
2022/11/10 09:50:42;;;;;;;21.65;3.70;;;;;;;10.58;95.76;102293.88;5033318;28;20409;-74
2022/11/10 09:53:40;;;;;;;18.08;3.67;;;;;;;10.64;95.07;102281.53;5047034;28;20452;-75
2022/11/10 09:56:33;;;;;;;19.65;3.60;;;;;;;10.71;95.26;102280.66;5026775;28;20055;-74
2022/11/10 09:59:29;;;;;;;17.90;3.95;;;;;;;10.82;94.96;102275.34;5019814;28;20060;-75
2022/11/10 10:02:32;;;;;;;14.07;2.97;;;;;;;10.93;93.97;102288.59;5028316;28;20068;-75
2022/11/10 10:05:38;;;;;;;13.55;3.40;;;;;;;11.03;94.29;102285.06;5022416;28;20113;-76
2022/11/10 10:08:25;;;;;;;19.85;4.35;;;;;;;11.14;94.01;102285.03;5031297;28;20448;-75
2022/11/10 10:11:25;;;;;;;18.48;4.57;;;;;;;11.25;92.61;102290.31;5022700;28;20508;-75
2022/11/10 10:14:55;;;;;;;13.05;3.33;;;;;;;11.39;93.11;102301.78;5022100;28;20051;-75
2022/11/10 10:17:56;;;;;;;19.80;4.25;;;;;;;11.51;92.50;102306.19;5000674;28;20120;-75
2022/11/10 10:21:11;;;;;;;19.60;3.90;;;;;;;11.61;91.13;102313.25;5010427;28;20127;-75
2022/11/10 10:23:58;;;;;;;18.38;4.07;;;;;;;11.71;90.46;102317.63;5031837;28;20419;-75
2022/11/10 10:26:53;;;;;;;18.48;3.97;;;;;;;11.78;90.29;102321.16;5018282;28;20465;-75
2022/11/10 10:29:46;;;;;;;21.92;4.18;;;;;;;11.84;88.50;102319.38;5032900;28;20048;-75
2022/11/10 10:32:30;;;;;;;17.77;3.53;;;;;;;11.88;87.97;102330.91;5031928;28;20129;-80
2022/11/10 10:35:15;;;;;;;16.70;3.45;;;;;;;11.91;87.92;102336.19;5015260;28;20123;-76
2022/11/10 10:38:01;;;;;;;17.73;3.25;;;;;;;12.01;87.84;102339.69;5030972;28;20048;-76
2022/11/10 10:40:48;;;;;;;19.02;3.72;;;;;;;12.09;87.61;102350.28;5014837;28;20575;-76
2022/11/10 10:43:32;;;;;;;21.38;3.63;;;;;;;12.19;86.86;102352.91;5030266;28;20059;-76
2022/11/10 10:46:19;;;;;;;14.98;3.22;;;;;;;12.23;86.13;102359.94;5026050;28;20083;-76
2022/11/10 10:49:21;;;;;;;23.00;3.55;;;;;;;12.38;87.14;102366.09;5017121;28;20060;-76
2022/11/10 10:52:09;;;;;;;15.60;3.50;;;;;;;12.54;86.71;102357.16;5026252;28;20091;-76
2022/11/10 10:55:04;;;;;;;13.82;2.85;;;;;;;12.70;84.86;102357.94;5031183;28;20727;-76
2022/11/10 10:57:50;;;;;;;15.20;3.38;;;;;;;12.82;83.76;102360.50;5028368;28;20048;-76
2022/11/10 11:00:42;;;;;;;15.70;3.42;;;;;;;12.85;82.28;102359.59;5030228;28;20048;-77
2022/11/10 11:03:45;;;;;;;18.50;3.25;;;;;;;12.90;82.35;102356.00;5042985;28;20104;-76
2022/11/10 11:06:31;;;;;;;13.60;3.00;;;;;;;12.93;81.94;102357.75;5033221;28;20044;-76
2022/11/10 11:09:24;;;;;;;15.70;3.15;;;;;;;12.96;82.77;102347.13;5031224;28;20183;-76
2022/11/10 11:12:19;;;;;;;17.10;3.55;;;;;;;13.06;81.56;102343.50;5031375;28;20099;-76
2022/11/10 11:15:29;;;;;;;14.23;3.17;;;;;;;13.17;82.21;102353.16;5028939;28;20100;-76
2022/11/10 11:18:15;;;;;;;21.97;4.00;;;;;;;13.33;80.85;102353.03;5030915;28;20052;-76
2022/11/10 11:21:18;;;;;;;17.55;3.22;;;;;;;13.41;79.42;102350.31;5029610;28;20228;-76
2022/11/10 11:24:19;;;;;;;24.92;3.53;;;;;;;13.46;77.55;102340.50;5029734;28;20048;-76
2022/11/10 11:27:09;;;;;;;;;;;;;;;13.58;78.64;102347.50;5031495;28;20591;-76
2022/11/10 11:30:07;;;;;;;17.27;3.45;;;;;;;13.65;77.29;102349.19;5031380;28;19963;-76
2022/11/10 11:33:23;;;;;;;12.38;3.08;;;;;;;13.80;77.64;102355.22;5028753;28;20106;-76
2022/11/10 11:36:19;;;;;;;15.25;3.60;;;;;;;14.02;77.11;102358.53;5045690;28;20075;-76
2022/11/10 11:39:37;;;;;;;14.35;2.95;;;;;;;14.13;77.93;102362.81;5044601;28;20055;-76
2022/11/10 11:42:49;;;;;;;12.57;3.00;;;;;;;14.08;75.99;102362.00;5041630;28;20121;-77
2022/11/10 11:45:42;;;;;;;12.10;3.05;;;;;;;13.94;75.38;102366.59;5045905;28;20132;-76
2022/11/10 11:49:14;;;;;;;14.77;2.80;;;;;;;13.86;75.28;102377.34;5050531;28;20091;-76
2022/11/10 11:52:14;;;;;;;13.02;2.38;;;;;;;13.91;75.60;102377.31;5005247;28;20144;-76
2022/11/10 11:55:06;;;;;;;14.55;2.63;;;;;;;13.80;74.54;102398.72;5046167;28;20082;-76
2022/11/10 11:58:22;;;;;;;17.77;2.80;;;;;;;13.77;74.94;102398.75;5046302;28;20048;-76
2022/11/10 12:01:25;;;;;;;9.93;2.13;;;;;;;13.86;76.01;102409.31;5044411;28;20539;-76
2022/11/10 12:04:18;;;;;;;12.13;2.60;;;;;;;13.94;73.97;102410.09;5049425;28;20140;-76
2022/11/10 12:07:19;;;;;;;12.30;2.92;;;;;;;13.93;74.62;102419.00;5050436;28;20087;-76
2022/11/10 12:10:09;;;;;;;15.07;3.05;;;;;;;13.95;74.82;102414.53;5045795;28;20045;-76
2022/11/10 12:12:59;;;;;;;18.08;3.10;;;;;;;14.05;73.18;102415.31;5048330;28;20515;-76
2022/11/10 12:16:03;;;;;;;20.58;3.20;;;;;;;14.09;74.64;102413.50;5012380;28;20099;-75
2022/11/10 12:19:03;;;;;;;12.95;2.88;;;;;;;14.16;75.11;102402.75;5019070;28;20044;-76
2022/11/10 12:22:00;;;;;;;19.05;4.15;;;;;;;14.27;74.49;102410.63;5041366;28;20051;-75
2022/11/10 12:25:06;;;;;;;16.02;2.38;;;;;;;14.22;73.33;102403.56;5046268;28;20472;-75
2022/11/10 12:28:08;;;;;;;15.18;2.35;;;;;;;14.24;74.22;102404.44;5049467;28;20546;-75
2022/11/10 12:30:58;;;;;;;13.68;2.80;;;;;;;14.28;72.82;102404.38;5049612;28;20580;-76
2022/11/10 12:33:52;;;;;;;20.52;3.28;;;;;;;14.31;73.17;102400.78;5047394;28;20072;-75
2022/11/10 12:36:36;;;;;;;14.32;2.35;;;;;;;14.35;73.47;102398.09;5047551;28;20075;-75
2022/11/10 12:39:50;;;;;;;16.73;2.35;;;;;;;14.45;74.73;102409.50;5042089;28;20064;-75
2022/11/10 12:42:36;;;;;;;12.75;2.60;;;;;;;14.46;72.03;102413.94;5030666;28;20183;-76
2022/11/10 12:45:27;;;;;;;9.93;2.13;;;;;;;14.44;72.47;102415.75;5019116;28;20044;-76
2022/11/10 12:48:13;;;;;;;12.82;2.38;;;;;;;14.37;71.39;102406.94;5023483;28;20107;-76
2022/11/10 12:51:12;;;;;;;10.88;2.80;;;;;;;14.31;71.42;102409.66;5016968;28;20125;-75
2022/11/10 12:53:56;;;;;;;10.40;2.42;;;;;;;14.30;69.86;102405.25;5028042;28;20125;-76
2022/11/10 12:56:52;;;;;;;15.40;3.22;;;;;;;14.34;71.11;102398.09;5021604;28;20132;-76
2022/11/10 12:59:39;;;;;;;12.05;2.47;;;;;;;14.39;70.86;102410.47;5046700;28;20142;-76
2022/11/10 13:02:29;;;;;;;10.18;2.45;;;;;;;14.46;69.92;102416.59;5048666;28;20120;-76